sensor_id;sensor_type;location;lat;lon;timestamp;P1;durP1;ratioP1;P2;durP2;ratioP2
30096;SDS011;16915;51.466;3.610;2022-11-12T00:02:25;34.95;;;19.70;;
30096;SDS011;16915;51.466;3.610;2022-11-12T00:04:58;37.00;;;21.10;;
30096;SDS011;16915;51.466;3.610;2022-11-12T00:07:44;42.97;;;20.90;;
30096;SDS011;16915;51.466;3.610;2022-11-12T00:10:37;35.65;;;20.83;;
30096;SDS011;16915;51.466;3.610;2022-11-12T00:13:23;38.58;;;20.30;;
30096;SDS011;16915;51.466;3.610;2022-11-12T00:16:32;38.67;;;19.55;;
30096;SDS011;16915;51.466;3.610;2022-11-12T00:20:09;31.67;;;18.60;;
30096;SDS011;16915;51.466;3.610;2022-11-12T00:23:18;30.38;;;17.50;;
30096;SDS011;16915;51.466;3.610;2022-11-12T00:25:59;32.72;;;18.05;;
30096;SDS011;16915;51.466;3.610;2022-11-12T00:28:57;30.42;;;18.00;;
30096;SDS011;16915;51.466;3.610;2022-11-12T00:32:15;32.25;;;17.85;;
30096;SDS011;16915;51.466;3.610;2022-11-12T00:35:24;33.60;;;18.58;;
30096;SDS011;16915;51.466;3.610;2022-11-12T00:38:24;34.25;;;18.48;;
30096;SDS011;16915;51.466;3.610;2022-11-12T00:41:41;35.90;;;19.33;;
30096;SDS011;16915;51.466;3.610;2022-11-12T00:47:09;31.15;;;16.73;;
30096;SDS011;16915;51.466;3.610;2022-11-12T00:50:06;30.52;;;17.38;;
30096;SDS011;16915;51.466;3.610;2022-11-12T00:53:14;31.98;;;17.85;;
30096;SDS011;16915;51.466;3.610;2022-11-12T00:56:08;30.33;;;16.67;;
30096;SDS011;16915;51.466;3.610;2022-11-12T00:59:29;31.58;;;17.38;;
30096;SDS011;16915;51.466;3.610;2022-11-12T01:02:33;29.48;;;16.85;;
30096;SDS011;16915;51.466;3.610;2022-11-12T01:05:47;28.65;;;17.38;;
30096;SDS011;16915;51.466;3.610;2022-11-12T01:09:14;36.40;;;19.00;;
30096;SDS011;16915;51.466;3.610;2022-11-12T01:12:37;30.17;;;17.75;;
30096;SDS011;16915;51.466;3.610;2022-11-12T01:15:07;35.50;;;17.80;;
30096;SDS011;16915;51.466;3.610;2022-11-12T01:18:29;34.70;;;17.83;;
30096;SDS011;16915;51.466;3.610;2022-11-12T01:21:16;38.58;;;19.25;;
30096;SDS011;16915;51.466;3.610;2022-11-12T01:24:11;33.45;;;17.92;;
30096;SDS011;16915;51.466;3.610;2022-11-12T01:29:47;29.88;;;17.63;;
30096;SDS011;16915;51.466;3.610;2022-11-12T01:32:20;35.40;;;18.02;;
30096;SDS011;16915;51.466;3.610;2022-11-12T01:35:22;31.10;;;16.08;;
30096;SDS011;16915;51.466;3.610;2022-11-12T01:38:10;31.27;;;16.52;;
30096;SDS011;16915;51.466;3.610;2022-11-12T01:41:18;27.40;;;16.52;;
30096;SDS011;16915;51.466;3.610;2022-11-12T01:44:37;25.45;;;15.48;;
30096;SDS011;16915;51.466;3.610;2022-11-12T01:50:54;24.25;;;14.68;;
30096;SDS011;16915;51.466;3.610;2022-11-12T01:53:31;26.90;;;15.23;;
30096;SDS011;16915;51.466;3.610;2022-11-12T01:56:22;26.38;;;15.50;;
30096;SDS011;16915;51.466;3.610;2022-11-12T01:59:26;27.67;;;16.42;;
30096;SDS011;16915;51.466;3.610;2022-11-12T02:02:24;26.48;;;16.65;;
30096;SDS011;16915;51.466;3.610;2022-11-12T02:05:41;28.77;;;16.65;;
30096;SDS011;16915;51.466;3.610;2022-11-12T02:08:23;29.20;;;16.73;;
30096;SDS011;16915;51.466;3.610;2022-11-12T02:11:28;31.85;;;16.00;;
30096;SDS011;16915;51.466;3.610;2022-11-12T02:14:56;32.17;;;17.13;;
30096;SDS011;16915;51.466;3.610;2022-11-12T02:18:12;28.95;;;16.25;;
30096;SDS011;16915;51.466;3.610;2022-11-12T02:22:00;28.88;;;16.52;;
30096;SDS011;16915;51.466;3.610;2022-11-12T02:28:24;33.35;;;16.20;;
30096;SDS011;16915;51.466;3.610;2022-11-12T02:31:41;30.93;;;16.40;;
30096;SDS011;16915;51.466;3.610;2022-11-12T02:34:32;28.88;;;16.02;;
30096;SDS011;16915;51.466;3.610;2022-11-12T02:37:27;29.63;;;15.93;;
30096;SDS011;16915;51.466;3.610;2022-11-12T02:40:19;31.17;;;17.40;;
30096;SDS011;16915;51.466;3.610;2022-11-12T02:43:37;29.15;;;16.80;;
30096;SDS011;16915;51.466;3.610;2022-11-12T02:46:17;33.63;;;17.13;;
30096;SDS011;16915;51.466;3.610;2022-11-12T02:49:14;31.90;;;16.52;;
30096;SDS011;16915;51.466;3.610;2022-11-12T02:52:08;34.33;;;18.08;;
30096;SDS011;16915;51.466;3.610;2022-11-12T02:55:02;29.58;;;17.02;;
30096;SDS011;16915;51.466;3.610;2022-11-12T02:58:00;36.65;;;17.42;;
30096;SDS011;16915;51.466;3.610;2022-11-12T03:01:32;32.67;;;16.80;;
30096;SDS011;16915;51.466;3.610;2022-11-12T03:04:30;33.53;;;16.83;;
30096;SDS011;16915;51.466;3.610;2022-11-12T03:07:57;32.55;;;16.02;;
30096;SDS011;16915;51.466;3.610;2022-11-12T03:11:11;29.25;;;15.75;;
30096;SDS011;16915;51.466;3.610;2022-11-12T03:14:09;24.27;;;14.57;;
30096;SDS011;16915;51.466;3.610;2022-11-12T03:17:10;24.30;;;14.77;;
30096;SDS011;16915;51.466;3.610;2022-11-12T03:20:34;23.02;;;13.48;;
30096;SDS011;16915;51.466;3.610;2022-11-12T03:23:24;29.40;;;14.50;;
30096;SDS011;16915;51.466;3.610;2022-11-12T03:26:33;29.70;;;15.02;;
30096;SDS011;16915;51.466;3.610;2022-11-12T03:33:13;25.27;;;12.95;;
30096;SDS011;16915;51.466;3.610;2022-11-12T03:35:46;21.70;;;13.50;;
30096;SDS011;16915;51.466;3.610;2022-11-12T03:39:05;22.95;;;13.15;;
30096;SDS011;16915;51.466;3.610;2022-11-12T03:41:55;26.83;;;12.98;;
30096;SDS011;16915;51.466;3.610;2022-11-12T03:45:28;25.52;;;12.13;;
30096;SDS011;16915;51.466;3.610;2022-11-12T03:48:52;27.55;;;12.65;;
30096;SDS011;16915;51.466;3.610;2022-11-12T03:52:07;22.77;;;12.07;;
30096;SDS011;16915;51.466;3.610;2022-11-12T03:55:10;22.58;;;11.90;;
30096;SDS011;16915;51.466;3.610;2022-11-12T03:57:47;28.90;;;13.20;;
30096;SDS011;16915;51.466;3.610;2022-11-12T04:00:52;19.67;;;12.38;;
30096;SDS011;16915;51.466;3.610;2022-11-12T04:04:09;22.92;;;12.43;;
30096;SDS011;16915;51.466;3.610;2022-11-12T04:07:20;26.15;;;12.57;;
30096;SDS011;16915;51.466;3.610;2022-11-12T04:10:11;23.90;;;13.05;;
30096;SDS011;16915;51.466;3.610;2022-11-12T04:13:14;19.98;;;11.77;;
30096;SDS011;16915;51.466;3.610;2022-11-12T04:19:35;21.50;;;11.95;;
30096;SDS011;16915;51.466;3.610;2022-11-12T04:22:48;20.48;;;12.02;;
30096;SDS011;16915;51.466;3.610;2022-11-12T04:26:13;17.13;;;8.85;;
30096;SDS011;16915;51.466;3.610;2022-11-12T04:29:54;21.48;;;12.13;;
30096;SDS011;16915;51.466;3.610;2022-11-12T04:32:53;23.35;;;12.68;;
30096;SDS011;16915;51.466;3.610;2022-11-12T04:35:53;19.30;;;11.60;;
30096;SDS011;16915;51.466;3.610;2022-11-12T04:39:20;23.38;;;12.57;;
30096;SDS011;16915;51.466;3.610;2022-11-12T04:42:03;19.88;;;12.27;;
30096;SDS011;16915;51.466;3.610;2022-11-12T04:44:53;26.33;;;13.70;;
30096;SDS011;16915;51.466;3.610;2022-11-12T04:48:09;21.70;;;12.65;;
30096;SDS011;16915;51.466;3.610;2022-11-12T04:51:02;21.92;;;12.20;;
30096;SDS011;16915;51.466;3.610;2022-11-12T04:54:20;20.60;;;12.27;;
30096;SDS011;16915;51.466;3.610;2022-11-12T05:03:53;20.35;;;12.55;;
30096;SDS011;16915;51.466;3.610;2022-11-12T05:07:16;23.35;;;13.10;;
30096;SDS011;16915;51.466;3.610;2022-11-12T05:13:16;26.33;;;13.82;;
30096;SDS011;16915;51.466;3.610;2022-11-12T05:16:34;23.20;;;14.30;;
30096;SDS011;16915;51.466;3.610;2022-11-12T05:22:02;30.75;;;15.45;;
30096;SDS011;16915;51.466;3.610;2022-11-12T05:25:20;33.65;;;17.73;;
30096;SDS011;16915;51.466;3.610;2022-11-12T05:32:24;28.40;;;15.85;;
30096;SDS011;16915;51.466;3.610;2022-11-12T05:35:12;29.70;;;15.73;;
30096;SDS011;16915;51.466;3.610;2022-11-12T05:38:14;31.65;;;17.63;;
30096;SDS011;16915;51.466;3.610;2022-11-12T05:41:02;31.15;;;16.90;;
30096;SDS011;16915;51.466;3.610;2022-11-12T05:44:02;28.45;;;16.58;;
30096;SDS011;16915;51.466;3.610;2022-11-12T05:47:08;30.13;;;15.95;;
30096;SDS011;16915;51.466;3.610;2022-11-12T05:49:50;30.85;;;16.80;;
30096;SDS011;16915;51.466;3.610;2022-11-12T05:53:31;27.15;;;16.50;;
30096;SDS011;16915;51.466;3.610;2022-11-12T05:56:18;33.85;;;16.98;;
30096;SDS011;16915;51.466;3.610;2022-11-12T06:02:01;26.50;;;13.88;;
30096;SDS011;16915;51.466;3.610;2022-11-12T06:04:53;28.85;;;15.68;;
30096;SDS011;16915;51.466;3.610;2022-11-12T06:07:32;22.88;;;15.07;;
30096;SDS011;16915;51.466;3.610;2022-11-12T06:10:51;27.27;;;15.90;;
30096;SDS011;16915;51.466;3.610;2022-11-12T06:14:01;31.58;;;17.60;;
30096;SDS011;16915;51.466;3.610;2022-11-12T06:16:51;33.30;;;17.60;;
30096;SDS011;16915;51.466;3.610;2022-11-12T06:19:56;32.58;;;17.13;;
30096;SDS011;16915;51.466;3.610;2022-11-12T06:22:51;27.50;;;15.25;;
30096;SDS011;16915;51.466;3.610;2022-11-12T06:28:39;24.50;;;14.60;;
30096;SDS011;16915;51.466;3.610;2022-11-12T06:34:34;32.30;;;17.35;;
30096;SDS011;16915;51.466;3.610;2022-11-12T06:37:22;27.90;;;17.45;;
30096;SDS011;16915;51.466;3.610;2022-11-12T06:39:53;37.35;;;17.45;;
30096;SDS011;16915;51.466;3.610;2022-11-12T06:42:55;29.67;;;16.83;;
30096;SDS011;16915;51.466;3.610;2022-11-12T06:46:05;26.08;;;15.93;;
30096;SDS011;16915;51.466;3.610;2022-11-12T06:49:28;24.65;;;14.15;;
30096;SDS011;16915;51.466;3.610;2022-11-12T06:52:02;29.10;;;14.60;;
30096;SDS011;16915;51.466;3.610;2022-11-12T06:54:49;24.83;;;14.77;;
30096;SDS011;16915;51.466;3.610;2022-11-12T06:57:36;29.20;;;15.00;;
30096;SDS011;16915;51.466;3.610;2022-11-12T07:00:39;25.42;;;13.88;;
30096;SDS011;16915;51.466;3.610;2022-11-12T07:03:40;25.88;;;14.15;;
30096;SDS011;16915;51.466;3.610;2022-11-12T07:06:19;26.20;;;14.02;;
30096;SDS011;16915;51.466;3.610;2022-11-12T07:09:57;24.30;;;13.45;;
30096;SDS011;16915;51.466;3.610;2022-11-12T07:12:52;29.77;;;14.32;;
30096;SDS011;16915;51.466;3.610;2022-11-12T07:19:46;26.67;;;13.27;;
30096;SDS011;16915;51.466;3.610;2022-11-12T07:23:01;21.90;;;13.25;;
30096;SDS011;16915;51.466;3.610;2022-11-12T07:26:04;30.30;;;14.90;;
30096;SDS011;16915;51.466;3.610;2022-11-12T07:29:25;23.30;;;13.52;;
30096;SDS011;16915;51.466;3.610;2022-11-12T07:32:13;25.00;;;13.30;;
30096;SDS011;16915;51.466;3.610;2022-11-12T07:35:10;24.23;;;13.70;;
30096;SDS011;16915;51.466;3.610;2022-11-12T07:37:59;24.98;;;14.15;;
30096;SDS011;16915;51.466;3.610;2022-11-12T07:41:02;21.60;;;13.10;;
30096;SDS011;16915;51.466;3.610;2022-11-12T07:43:45;17.80;;;12.90;;
30096;SDS011;16915;51.466;3.610;2022-11-12T07:46:25;26.17;;;13.55;;
30096;SDS011;16915;51.466;3.610;2022-11-12T07:49:03;21.63;;;13.18;;
30096;SDS011;16915;51.466;3.610;2022-11-12T07:52:09;23.85;;;13.32;;
30096;SDS011;16915;51.466;3.610;2022-11-12T07:54:59;26.98;;;13.55;;
30096;SDS011;16915;51.466;3.610;2022-11-12T07:57:26;23.73;;;13.13;;
30096;SDS011;16915;51.466;3.610;2022-11-12T08:03:38;22.02;;;13.38;;
30096;SDS011;16915;51.466;3.610;2022-11-12T08:07:07;24.48;;;13.38;;
30096;SDS011;16915;51.466;3.610;2022-11-12T08:12:24;23.90;;;13.73;;
30096;SDS011;16915;51.466;3.610;2022-11-12T08:14:59;23.42;;;14.43;;
30096;SDS011;16915;51.466;3.610;2022-11-12T08:17:24;25.30;;;14.80;;
30096;SDS011;16915;51.466;3.610;2022-11-12T08:19:50;23.88;;;15.15;;
30096;SDS011;16915;51.466;3.610;2022-11-12T08:22:19;30.23;;;14.43;;
30096;SDS011;16915;51.466;3.610;2022-11-12T08:24:45;21.98;;;14.10;;
30096;SDS011;16915;51.466;3.610;2022-11-12T08:27:14;23.60;;;13.55;;
30096;SDS011;16915;51.466;3.610;2022-11-12T08:30:09;19.65;;;13.73;;
30096;SDS011;16915;51.466;3.610;2022-11-12T08:33:31;20.67;;;12.90;;
30096;SDS011;16915;51.466;3.610;2022-11-12T08:36:09;21.85;;;13.18;;
30096;SDS011;16915;51.466;3.610;2022-11-12T08:39:01;22.35;;;13.70;;
30096;SDS011;16915;51.466;3.610;2022-11-12T08:41:30;21.70;;;13.55;;
30096;SDS011;16915;51.466;3.610;2022-11-12T08:44:11;19.92;;;12.93;;
30096;SDS011;16915;51.466;3.610;2022-11-12T08:46:58;24.38;;;13.70;;
30096;SDS011;16915;51.466;3.610;2022-11-12T08:49:31;23.98;;;14.00;;
30096;SDS011;16915;51.466;3.610;2022-11-12T08:52:23;23.90;;;12.82;;
30096;SDS011;16915;51.466;3.610;2022-11-12T08:55:29;24.45;;;13.30;;
30096;SDS011;16915;51.466;3.610;2022-11-12T08:58:21;21.90;;;13.23;;
30096;SDS011;16915;51.466;3.610;2022-11-12T09:01:06;23.95;;;13.48;;
30096;SDS011;16915;51.466;3.610;2022-11-12T09:04:21;20.95;;;12.55;;
30096;SDS011;16915;51.466;3.610;2022-11-12T09:07:18;24.27;;;13.40;;
30096;SDS011;16915;51.466;3.610;2022-11-12T09:13:06;23.67;;;12.70;;
30096;SDS011;16915;51.466;3.610;2022-11-12T09:16:00;20.42;;;13.57;;
30096;SDS011;16915;51.466;3.610;2022-11-12T09:19:24;21.42;;;13.60;;
30096;SDS011;16915;51.466;3.610;2022-11-12T09:22:27;22.60;;;13.88;;
30096;SDS011;16915;51.466;3.610;2022-11-12T09:25:51;31.50;;;14.43;;
30096;SDS011;16915;51.466;3.610;2022-11-12T09:28:23;27.25;;;15.35;;
30096;SDS011;16915;51.466;3.610;2022-11-12T09:31:10;27.08;;;14.45;;
30096;SDS011;16915;51.466;3.610;2022-11-12T09:33:45;32.20;;;14.95;;
30096;SDS011;16915;51.466;3.610;2022-11-12T09:36:36;23.80;;;14.65;;
30096;SDS011;16915;51.466;3.610;2022-11-12T09:39:04;25.40;;;14.13;;
30096;SDS011;16915;51.466;3.610;2022-11-12T09:41:38;26.30;;;13.70;;
30096;SDS011;16915;51.466;3.610;2022-11-12T09:50:24;29.38;;;15.02;;
30096;SDS011;16915;51.466;3.610;2022-11-12T09:53:10;26.55;;;15.23;;
30096;SDS011;16915;51.466;3.610;2022-11-12T09:55:52;28.08;;;16.60;;
30096;SDS011;16915;51.466;3.610;2022-11-12T09:58:21;27.08;;;14.55;;
30096;SDS011;16915;51.466;3.610;2022-11-12T10:01:41;23.73;;;14.48;;
30096;SDS011;16915;51.466;3.610;2022-11-12T10:07:31;24.55;;;14.75;;
30096;SDS011;16915;51.466;3.610;2022-11-12T10:10:41;19.77;;;14.73;;
30096;SDS011;16915;51.466;3.610;2022-11-12T10:17:22;22.48;;;13.70;;
30096;SDS011;16915;51.466;3.610;2022-11-12T10:20:13;15.52;;;11.30;;
30096;SDS011;16915;51.466;3.610;2022-11-12T10:25:23;10.10;;;9.10;;
30096;SDS011;16915;51.466;3.610;2022-11-12T10:27:54;8.60;;;7.80;;
30096;SDS011;16915;51.466;3.610;2022-11-12T10:30:21;8.50;;;7.63;;
30096;SDS011;16915;51.466;3.610;2022-11-12T10:32:48;8.20;;;7.28;;
30096;SDS011;16915;51.466;3.610;2022-11-12T10:35:16;8.88;;;6.50;;
30096;SDS011;16915;51.466;3.610;2022-11-12T10:37:48;6.45;;;5.85;;
30096;SDS011;16915;51.466;3.610;2022-11-12T10:45:41;8.75;;;5.50;;
30096;SDS011;16915;51.466;3.610;2022-11-12T10:48:25;6.97;;;5.40;;
30096;SDS011;16915;51.466;3.610;2022-11-12T10:50:56;5.93;;;5.43;;
30096;SDS011;16915;51.466;3.610;2022-11-12T10:53:33;5.05;;;4.60;;
30096;SDS011;16915;51.466;3.610;2022-11-12T10:56:07;5.43;;;4.93;;
30096;SDS011;16915;51.466;3.610;2022-11-12T10:59:12;5.75;;;5.25;;
30096;SDS011;16915;51.466;3.610;2022-11-12T11:01:55;5.38;;;4.93;;
30096;SDS011;16915;51.466;3.610;2022-11-12T11:04:29;5.25;;;4.85;;
30096;SDS011;16915;51.466;3.610;2022-11-12T11:07:14;5.60;;;4.97;;
30096;SDS011;16915;51.466;3.610;2022-11-12T11:09:55;5.40;;;5.00;;
30096;SDS011;16915;51.466;3.610;2022-11-12T11:12:26;5.70;;;5.20;;
30096;SDS011;16915;51.466;3.610;2022-11-12T11:17:35;5.75;;;5.18;;
30096;SDS011;16915;51.466;3.610;2022-11-12T11:20:05;7.85;;;5.68;;
30096;SDS011;16915;51.466;3.610;2022-11-12T11:22:45;6.25;;;5.45;;
30096;SDS011;16915;51.466;3.610;2022-11-12T11:25:26;5.10;;;4.70;;
30096;SDS011;16915;51.466;3.610;2022-11-12T11:30:21;5.45;;;4.95;;
30096;SDS011;16915;51.466;3.610;2022-11-12T11:38:31;5.88;;;4.60;;
30096;SDS011;16915;51.466;3.610;2022-11-12T11:43:39;4.78;;;4.43;;
30096;SDS011;16915;51.466;3.610;2022-11-12T11:49:15;6.50;;;4.85;;
30096;SDS011;16915;51.466;3.610;2022-11-12T11:55:04;7.15;;;5.30;;
30096;SDS011;16915;51.466;3.610;2022-11-12T12:00:45;7.90;;;5.07;;
30096;SDS011;16915;51.466;3.610;2022-11-12T12:06:02;7.70;;;6.32;;
30096;SDS011;16915;51.466;3.610;2022-11-12T12:17:19;10.52;;;8.65;;
30096;SDS011;16915;51.466;3.610;2022-11-12T12:19:58;11.48;;;8.63;;
30096;SDS011;16915;51.466;3.610;2022-11-12T12:22:36;10.05;;;8.32;;
30096;SDS011;16915;51.466;3.610;2022-11-12T12:25:10;10.77;;;9.13;;
30096;SDS011;16915;51.466;3.610;2022-11-12T12:27:56;11.13;;;9.07;;
30096;SDS011;16915;51.466;3.610;2022-11-12T12:30:29;10.15;;;8.45;;
30096;SDS011;16915;51.466;3.610;2022-11-12T12:33:00;10.73;;;8.77;;
30096;SDS011;16915;51.466;3.610;2022-11-12T12:35:55;12.85;;;9.52;;
30096;SDS011;16915;51.466;3.610;2022-11-12T12:44:21;10.82;;;8.55;;
30096;SDS011;16915;51.466;3.610;2022-11-12T12:47:06;8.80;;;7.90;;
30096;SDS011;16915;51.466;3.610;2022-11-12T12:49:36;9.82;;;8.82;;
30096;SDS011;16915;51.466;3.610;2022-11-12T12:52:04;11.27;;;8.70;;
30096;SDS011;16915;51.466;3.610;2022-11-12T12:57:04;8.80;;;7.60;;
30096;SDS011;16915;51.466;3.610;2022-11-12T13:00:23;9.70;;;7.40;;
30096;SDS011;16915;51.466;3.610;2022-11-12T13:03:03;8.07;;;7.28;;
30096;SDS011;16915;51.466;3.610;2022-11-12T13:05:33;8.15;;;7.38;;
30096;SDS011;16915;51.466;3.610;2022-11-12T13:08:05;9.40;;;7.30;;
30096;SDS011;16915;51.466;3.610;2022-11-12T13:15:44;8.63;;;7.82;;
30096;SDS011;16915;51.466;3.610;2022-11-12T13:21:14;9.10;;;8.18;;
30096;SDS011;16915;51.466;3.610;2022-11-12T13:23:43;8.90;;;7.93;;
30096;SDS011;16915;51.466;3.610;2022-11-12T13:31:49;13.23;;;8.60;;
30096;SDS011;16915;51.466;3.610;2022-11-12T13:51:02;15.48;;;11.27;;
30096;SDS011;16915;51.466;3.610;2022-11-12T13:53:36;18.98;;;12.43;;
30096;SDS011;16915;51.466;3.610;2022-11-12T13:56:02;20.02;;;13.60;;
30096;SDS011;16915;51.466;3.610;2022-11-12T13:58:33;23.35;;;15.40;;
30096;SDS011;16915;51.466;3.610;2022-11-12T14:01:00;23.27;;;16.90;;
30096;SDS011;16915;51.466;3.610;2022-11-12T14:03:28;24.83;;;15.82;;
30096;SDS011;16915;51.466;3.610;2022-11-12T14:06:18;27.10;;;16.63;;
30096;SDS011;16915;51.466;3.610;2022-11-12T14:09:31;24.60;;;14.95;;
30096;SDS011;16915;51.466;3.610;2022-11-12T14:32:08;19.10;;;12.05;;
30096;SDS011;16915;51.466;3.610;2022-11-12T14:38:52;16.15;;;11.60;;
30096;SDS011;16915;51.466;3.610;2022-11-12T14:45:24;18.42;;;9.70;;
30096;SDS011;16915;51.466;3.610;2022-11-12T14:49:00;18.02;;;10.93;;
30096;SDS011;16915;51.466;3.610;2022-11-12T14:51:53;12.52;;;10.65;;
30096;SDS011;16915;51.466;3.610;2022-11-12T14:54:50;13.85;;;10.88;;
30096;SDS011;16915;51.466;3.610;2022-11-12T14:58:15;13.10;;;9.95;;
30096;SDS011;16915;51.466;3.610;2022-11-12T15:01:38;13.40;;;10.43;;
30096;SDS011;16915;51.466;3.610;2022-11-12T15:12:21;13.98;;;9.43;;
30096;SDS011;16915;51.466;3.610;2022-11-12T15:42:37;20.92;;;11.88;;
30096;SDS011;16915;51.466;3.610;2022-11-12T15:48:33;19.35;;;12.00;;
30096;SDS011;16915;51.466;3.610;2022-11-12T15:55:06;19.08;;;12.32;;
30096;SDS011;16915;51.466;3.610;2022-11-12T15:58:42;21.48;;;13.27;;
30096;SDS011;16915;51.466;3.610;2022-11-12T16:01:52;20.15;;;13.52;;
30096;SDS011;16915;51.466;3.610;2022-11-12T16:09:00;20.73;;;13.00;;
30096;SDS011;16915;51.466;3.610;2022-11-12T16:12:39;21.65;;;13.32;;
30096;SDS011;16915;51.466;3.610;2022-11-12T16:16:09;19.80;;;13.15;;
30096;SDS011;16915;51.466;3.610;2022-11-12T16:22:50;23.63;;;14.35;;
30096;SDS011;16915;51.466;3.610;2022-11-12T16:26:00;22.65;;;13.80;;
30096;SDS011;16915;51.466;3.610;2022-11-12T16:29:39;25.73;;;13.18;;
30096;SDS011;16915;51.466;3.610;2022-11-12T16:32:35;24.05;;;14.23;;
30096;SDS011;16915;51.466;3.610;2022-11-12T16:35:47;24.40;;;14.77;;
30096;SDS011;16915;51.466;3.610;2022-11-12T16:39:40;24.48;;;15.20;;
30096;SDS011;16915;51.466;3.610;2022-11-12T16:45:58;26.13;;;15.03;;
30096;SDS011;16915;51.466;3.610;2022-11-12T16:48:47;23.50;;;14.88;;
30096;SDS011;16915;51.466;3.610;2022-11-12T16:51:35;25.98;;;16.00;;
30096;SDS011;16915;51.466;3.610;2022-11-12T16:58:34;25.77;;;15.25;;
30096;SDS011;16915;51.466;3.610;2022-11-12T17:02:09;27.25;;;15.30;;
30096;SDS011;16915;51.466;3.610;2022-11-12T17:05:30;23.65;;;14.77;;
30096;SDS011;16915;51.466;3.610;2022-11-12T17:08:52;23.88;;;14.25;;
30096;SDS011;16915;51.466;3.610;2022-11-12T17:12:21;24.73;;;14.43;;
30096;SDS011;16915;51.466;3.610;2022-11-12T17:15:08;27.27;;;14.93;;
30096;SDS011;16915;51.466;3.610;2022-11-12T17:18:35;25.02;;;14.43;;
30096;SDS011;16915;51.466;3.610;2022-11-12T17:21:57;22.80;;;15.57;;
30096;SDS011;16915;51.466;3.610;2022-11-12T17:25:23;22.35;;;15.15;;
30096;SDS011;16915;51.466;3.610;2022-11-12T17:32:34;19.55;;;13.05;;
30096;SDS011;16915;51.466;3.610;2022-11-12T17:36:12;17.45;;;12.52;;
30096;SDS011;16915;51.466;3.610;2022-11-12T17:42:56;18.15;;;12.10;;
30096;SDS011;16915;51.466;3.610;2022-11-12T17:46:19;21.02;;;12.55;;
30096;SDS011;16915;51.466;3.610;2022-11-12T17:49:38;19.20;;;12.10;;
30096;SDS011;16915;51.466;3.610;2022-11-12T17:56:28;18.67;;;11.07;;
30096;SDS011;16915;51.466;3.610;2022-11-12T17:59:44;17.15;;;10.93;;
30096;SDS011;16915;51.466;3.610;2022-11-12T18:03:07;19.63;;;11.30;;
30096;SDS011;16915;51.466;3.610;2022-11-12T18:17:01;12.70;;;9.73;;
30096;SDS011;16915;51.466;3.610;2022-11-12T18:20:11;16.73;;;10.88;;
30096;SDS011;16915;51.466;3.610;2022-11-12T18:26:30;39.75;;;23.42;;
30096;SDS011;16915;51.466;3.610;2022-11-12T18:30:05;39.42;;;24.80;;
30096;SDS011;16915;51.466;3.610;2022-11-12T18:33:34;43.00;;;24.70;;
30096;SDS011;16915;51.466;3.610;2022-11-12T18:36:50;29.55;;;18.67;;
30096;SDS011;16915;51.466;3.610;2022-11-12T18:39:52;23.13;;;14.73;;
30096;SDS011;16915;51.466;3.610;2022-11-12T18:51:14;22.67;;;12.63;;
30096;SDS011;16915;51.466;3.610;2022-11-12T19:04:16;16.80;;;12.73;;
30096;SDS011;16915;51.466;3.610;2022-11-12T19:13:25;18.02;;;11.85;;
30096;SDS011;16915;51.466;3.610;2022-11-12T19:19:08;18.70;;;11.63;;
30096;SDS011;16915;51.466;3.610;2022-11-12T19:22:29;17.67;;;12.43;;
30096;SDS011;16915;51.466;3.610;2022-11-12T19:25:23;17.85;;;12.68;;
30096;SDS011;16915;51.466;3.610;2022-11-12T19:28:52;20.52;;;13.48;;
30096;SDS011;16915;51.466;3.610;2022-11-12T19:32:13;17.83;;;12.90;;
30096;SDS011;16915;51.466;3.610;2022-11-12T19:35:25;20.92;;;13.45;;
30096;SDS011;16915;51.466;3.610;2022-11-12T19:45:43;24.38;;;12.82;;
30096;SDS011;16915;51.466;3.610;2022-11-12T19:52:59;20.75;;;12.40;;
30096;SDS011;16915;51.466;3.610;2022-11-12T20:04:35;17.88;;;11.88;;
30096;SDS011;16915;51.466;3.610;2022-11-12T20:15:06;18.40;;;11.43;;
30096;SDS011;16915;51.466;3.610;2022-11-12T20:18:34;16.55;;;12.10;;
30096;SDS011;16915;51.466;3.610;2022-11-12T20:22:32;17.50;;;12.30;;
30096;SDS011;16915;51.466;3.610;2022-11-12T20:26:07;16.60;;;11.32;;
30096;SDS011;16915;51.466;3.610;2022-11-12T20:49:46;15.88;;;11.32;;
30096;SDS011;16915;51.466;3.610;2022-11-12T20:53:02;18.42;;;11.82;;
30096;SDS011;16915;51.466;3.610;2022-11-12T20:56:34;17.35;;;12.18;;
30096;SDS011;16915;51.466;3.610;2022-11-12T21:15:14;17.90;;;11.35;;
30096;SDS011;16915;51.466;3.610;2022-11-12T21:21:33;18.25;;;12.57;;
30096;SDS011;16915;51.466;3.610;2022-11-12T21:25:12;18.38;;;13.10;;
30096;SDS011;16915;51.466;3.610;2022-11-12T21:32:12;16.40;;;11.45;;
30096;SDS011;16915;51.466;3.610;2022-11-12T21:42:47;21.23;;;13.93;;
30096;SDS011;16915;51.466;3.610;2022-11-12T21:46:18;20.13;;;14.07;;
30096;SDS011;16915;51.466;3.610;2022-11-12T21:56:16;21.50;;;14.40;;
30096;SDS011;16915;51.466;3.610;2022-11-12T21:59:34;23.25;;;15.95;;
30096;SDS011;16915;51.466;3.610;2022-11-12T22:02:54;25.80;;;15.15;;
30096;SDS011;16915;51.466;3.610;2022-11-12T22:06:07;23.75;;;15.70;;
30096;SDS011;16915;51.466;3.610;2022-11-12T22:13:16;24.70;;;15.80;;
30096;SDS011;16915;51.466;3.610;2022-11-12T22:16:50;22.05;;;15.35;;
30096;SDS011;16915;51.466;3.610;2022-11-12T22:20:23;25.42;;;14.82;;
30096;SDS011;16915;51.466;3.610;2022-11-12T22:23:21;23.48;;;16.48;;
30096;SDS011;16915;51.466;3.610;2022-11-12T22:29:46;24.65;;;15.77;;
30096;SDS011;16915;51.466;3.610;2022-11-12T22:33:18;28.58;;;18.13;;
30096;SDS011;16915;51.466;3.610;2022-11-12T22:36:06;26.90;;;17.55;;
30096;SDS011;16915;51.466;3.610;2022-11-12T22:39:38;23.80;;;16.30;;
30096;SDS011;16915;51.466;3.610;2022-11-12T22:43:18;33.88;;;19.02;;
30096;SDS011;16915;51.466;3.610;2022-11-12T22:49:39;23.55;;;17.10;;
30096;SDS011;16915;51.466;3.610;2022-11-12T22:53:15;25.75;;;15.88;;
30096;SDS011;16915;51.466;3.610;2022-11-12T22:56:21;25.83;;;16.42;;
30096;SDS011;16915;51.466;3.610;2022-11-12T22:59:45;28.55;;;17.25;;
30096;SDS011;16915;51.466;3.610;2022-11-12T23:03:06;29.48;;;17.05;;
30096;SDS011;16915;51.466;3.610;2022-11-12T23:06:36;27.40;;;15.52;;
30096;SDS011;16915;51.466;3.610;2022-11-12T23:13:28;26.75;;;16.23;;
30096;SDS011;16915;51.466;3.610;2022-11-12T23:16:33;25.30;;;16.05;;
30096;SDS011;16915;51.466;3.610;2022-11-12T23:26:31;25.88;;;17.75;;
30096;SDS011;16915;51.466;3.610;2022-11-12T23:30:03;22.50;;;15.10;;
30096;SDS011;16915;51.466;3.610;2022-11-12T23:33:03;21.75;;;14.82;;
30096;SDS011;16915;51.466;3.610;2022-11-12T23:40:25;22.60;;;13.77;;
30096;SDS011;16915;51.466;3.610;2022-11-12T23:47:06;25.95;;;13.88;;
30096;SDS011;16915;51.466;3.610;2022-11-12T23:50:11;24.70;;;14.52;;
30096;SDS011;16915;51.466;3.610;2022-11-12T23:53:44;21.73;;;13.63;;
